sensor_id;sensor_type;location;lat;lon;timestamp;temperature;humidity
5743;DHT22;2896;53.500;10.020;2024-01-30T00:08:23;1.40;99.90
5743;DHT22;2896;53.500;10.020;2024-01-30T00:13:16;1.30;99.90
5743;DHT22;2896;53.500;10.020;2024-01-30T00:25:34;1.20;99.90
5743;DHT22;2896;53.500;10.020;2024-01-30T00:28:01;1.10;99.90
5743;DHT22;2896;53.500;10.020;2024-01-30T00:42:44;1.00;99.90
5743;DHT22;2896;53.500;10.020;2024-01-30T00:45:14;1.00;99.90
5743;DHT22;2896;53.500;10.020;2024-01-30T01:00:00;0.90;99.90
5743;DHT22;2896;53.500;10.020;2024-01-30T01:09:47;0.90;99.90
5743;DHT22;2896;53.500;10.020;2024-01-30T01:26:58;0.90;99.90
5743;DHT22;2896;53.500;10.020;2024-01-30T01:29:25;1.70;99.90
5743;DHT22;2896;53.500;10.020;2024-01-30T01:31:54;0.80;99.90
5743;DHT22;2896;53.500;10.020;2024-01-30T01:34:22;0.80;99.90
5743;DHT22;2896;53.500;10.020;2024-01-30T01:39:17;0.70;99.90
5743;DHT22;2896;53.500;10.020;2024-01-30T01:44:10;0.70;99.90
5743;DHT22;2896;53.500;10.020;2024-01-30T01:49:05;0.70;99.90
5743;DHT22;2896;53.500;10.020;2024-01-30T01:51:34;0.70;99.90
5743;DHT22;2896;53.500;10.020;2024-01-30T01:54:03;0.70;99.90
5743;DHT22;2896;53.500;10.020;2024-01-30T01:56:30;0.70;99.90
5743;DHT22;2896;53.500;10.020;2024-01-30T01:59:00;0.70;99.90
5743;DHT22;2896;53.500;10.020;2024-01-30T02:01:27;0.70;99.90
5743;DHT22;2896;53.500;10.020;2024-01-30T02:03:55;0.70;99.90
5743;DHT22;2896;53.500;10.020;2024-01-30T02:06:22;0.70;99.90
5743;DHT22;2896;53.500;10.020;2024-01-30T02:08:51;0.70;99.90
5743;DHT22;2896;53.500;10.020;2024-01-30T02:13:44;0.70;99.90
5743;DHT22;2896;53.500;10.020;2024-01-30T02:21:10;0.80;99.90
5743;DHT22;2896;53.500;10.020;2024-01-30T02:23:36;0.80;99.90
5743;DHT22;2896;53.500;10.020;2024-01-30T02:28:31;0.90;99.90
5743;DHT22;2896;53.500;10.020;2024-01-30T02:38:20;1.00;99.90
5743;DHT22;2896;53.500;10.020;2024-01-30T02:43:13;1.10;99.90
5743;DHT22;2896;53.500;10.020;2024-01-30T02:48:07;1.10;99.90
5743;DHT22;2896;53.500;10.020;2024-01-30T02:55:29;1.20;99.90
5743;DHT22;2896;53.500;10.020;2024-01-30T03:05:18;1.20;99.90
5743;DHT22;2896;53.500;10.020;2024-01-30T03:12:40;1.10;99.90
5743;DHT22;2896;53.500;10.020;2024-01-30T03:15:06;1.10;99.90
5743;DHT22;2896;53.500;10.020;2024-01-30T03:24:58;1.00;99.90
5743;DHT22;2896;53.500;10.020;2024-01-30T03:29:53;1.20;99.90
5743;DHT22;2896;53.500;10.020;2024-01-30T03:42:08;0.90;99.90
5743;DHT22;2896;53.500;10.020;2024-01-30T03:44:35;0.90;99.90
5743;DHT22;2896;53.500;10.020;2024-01-30T03:47:03;2.10;99.90
5743;DHT22;2896;53.500;10.020;2024-01-30T04:04:17;0.90;99.90
5743;DHT22;2896;53.500;10.020;2024-01-30T04:09:12;0.80;99.90
5743;DHT22;2896;53.500;10.020;2024-01-30T04:16:34;0.80;99.90
5743;DHT22;2896;53.500;10.020;2024-01-30T04:19:01;0.80;99.90
5743;DHT22;2896;53.500;10.020;2024-01-30T04:21:29;0.80;99.90
5743;DHT22;2896;53.500;10.020;2024-01-30T04:28:50;0.80;99.90
5743;DHT22;2896;53.500;10.020;2024-01-30T04:38:39;0.70;99.90
5743;DHT22;2896;53.500;10.020;2024-01-30T04:41:05;0.70;99.90
5743;DHT22;2896;53.500;10.020;2024-01-30T04:50:54;0.70;99.90
5743;DHT22;2896;53.500;10.020;2024-01-30T04:55:49;0.70;99.90
5743;DHT22;2896;53.500;10.020;2024-01-30T05:05:38;0.70;99.90
5743;DHT22;2896;53.500;10.020;2024-01-30T05:10:32;0.80;99.90
5743;DHT22;2896;53.500;10.020;2024-01-30T05:13:00;0.70;99.90
5743;DHT22;2896;53.500;10.020;2024-01-30T05:22:48;0.70;99.90
5743;DHT22;2896;53.500;10.020;2024-01-30T05:25:15;0.70;99.90
5743;DHT22;2896;53.500;10.020;2024-01-30T05:30:11;0.60;99.90
5743;DHT22;2896;53.500;10.020;2024-01-30T05:35:05;0.60;99.90
5743;DHT22;2896;53.500;10.020;2024-01-30T05:37:33;0.60;99.90
5743;DHT22;2896;53.500;10.020;2024-01-30T05:40:00;0.60;99.90
5743;DHT22;2896;53.500;10.020;2024-01-30T05:42:27;0.60;99.90
5743;DHT22;2896;53.500;10.020;2024-01-30T05:44:53;0.50;99.90
5743;DHT22;2896;53.500;10.020;2024-01-30T05:47:21;0.50;99.90
5743;DHT22;2896;53.500;10.020;2024-01-30T05:52:15;0.50;99.90
5743;DHT22;2896;53.500;10.020;2024-01-30T05:54:43;0.40;99.90
5743;DHT22;2896;53.500;10.020;2024-01-30T06:02:03;0.50;99.90
5743;DHT22;2896;53.500;10.020;2024-01-30T06:04:31;0.50;99.90
5743;DHT22;2896;53.500;10.020;2024-01-30T06:06:58;0.50;99.90
5743;DHT22;2896;53.500;10.020;2024-01-30T06:16:48;0.60;99.90
5743;DHT22;2896;53.500;10.020;2024-01-30T06:19:15;0.60;99.90
5743;DHT22;2896;53.500;10.020;2024-01-30T06:21:44;0.70;99.90
5743;DHT22;2896;53.500;10.020;2024-01-30T06:26:38;0.70;99.90
5743;DHT22;2896;53.500;10.020;2024-01-30T06:36:26;1.00;99.90
5743;DHT22;2896;53.500;10.020;2024-01-30T06:38:54;1.10;99.90
5743;DHT22;2896;53.500;10.020;2024-01-30T06:43:48;1.30;99.90
5743;DHT22;2896;53.500;10.020;2024-01-30T06:48:42;1.40;99.90
5743;DHT22;2896;53.500;10.020;2024-01-30T06:51:10;1.40;99.90
5743;DHT22;2896;53.500;10.020;2024-01-30T06:53:37;1.40;99.90
5743;DHT22;2896;53.500;10.020;2024-01-30T06:56:05;1.40;99.90
5743;DHT22;2896;53.500;10.020;2024-01-30T06:58:32;1.40;99.90
5743;DHT22;2896;53.500;10.020;2024-01-30T07:00:59;1.40;99.90
5743;DHT22;2896;53.500;10.020;2024-01-30T07:05:52;1.40;99.90
5743;DHT22;2896;53.500;10.020;2024-01-30T07:13:14;1.50;99.90
5743;DHT22;2896;53.500;10.020;2024-01-30T07:15:42;1.50;99.90
5743;DHT22;2896;53.500;10.020;2024-01-30T07:20:36;1.50;99.90
5743;DHT22;2896;53.500;10.020;2024-01-30T07:25:30;1.70;99.90
5743;DHT22;2896;53.500;10.020;2024-01-30T07:27:56;1.70;99.90
5743;DHT22;2896;53.500;10.020;2024-01-30T07:30:24;1.70;99.90
5743;DHT22;2896;53.500;10.020;2024-01-30T07:32:51;1.70;99.90
5743;DHT22;2896;53.500;10.020;2024-01-30T07:40:12;1.80;99.90
5743;DHT22;2896;53.500;10.020;2024-01-30T07:45:06;2.00;99.90
5743;DHT22;2896;53.500;10.020;2024-01-30T07:47:34;2.10;99.90
5743;DHT22;2896;53.500;10.020;2024-01-30T07:52:28;2.10;99.90
5743;DHT22;2896;53.500;10.020;2024-01-30T07:57:22;2.20;99.90
5743;DHT22;2896;53.500;10.020;2024-01-30T07:59:48;2.30;99.90
5743;DHT22;2896;53.500;10.020;2024-01-30T08:02:15;2.40;99.90
5743;DHT22;2896;53.500;10.020;2024-01-30T08:04:43;2.50;99.90
5743;DHT22;2896;53.500;10.020;2024-01-30T08:07:13;2.60;99.90
5743;DHT22;2896;53.500;10.020;2024-01-30T08:09:40;2.60;99.90
5743;DHT22;2896;53.500;10.020;2024-01-30T08:14:34;2.70;99.90
5743;DHT22;2896;53.500;10.020;2024-01-30T08:19:28;2.90;99.90
5743;DHT22;2896;53.500;10.020;2024-01-30T08:21:55;2.90;99.90
5743;DHT22;2896;53.500;10.020;2024-01-30T08:24:22;2.90;99.90
5743;DHT22;2896;53.500;10.020;2024-01-30T08:26:49;2.90;99.90
5743;DHT22;2896;53.500;10.020;2024-01-30T08:31:42;3.10;99.90
5743;DHT22;2896;53.500;10.020;2024-01-30T08:34:09;3.10;99.90
5743;DHT22;2896;53.500;10.020;2024-01-30T08:36:36;3.10;99.90
5743;DHT22;2896;53.500;10.020;2024-01-30T08:39:04;3.10;99.90
5743;DHT22;2896;53.500;10.020;2024-01-30T08:41:31;3.10;99.90
5743;DHT22;2896;53.500;10.020;2024-01-30T08:46:24;3.30;99.90
5743;DHT22;2896;53.500;10.020;2024-01-30T08:48:51;3.40;99.90
5743;DHT22;2896;53.500;10.020;2024-01-30T08:51:18;3.40;99.90
5743;DHT22;2896;53.500;10.020;2024-01-30T08:53:45;3.50;99.90
5743;DHT22;2896;53.500;10.020;2024-01-30T08:56:13;3.70;99.90
5743;DHT22;2896;53.500;10.020;2024-01-30T08:58:41;3.80;99.90
5743;DHT22;2896;53.500;10.020;2024-01-30T09:01:08;3.80;99.90
5743;DHT22;2896;53.500;10.020;2024-01-30T09:03:34;3.80;99.90
5743;DHT22;2896;53.500;10.020;2024-01-30T09:06:02;3.90;99.90
5743;DHT22;2896;53.500;10.020;2024-01-30T09:08:29;4.10;99.90
5743;DHT22;2896;53.500;10.020;2024-01-30T09:13:24;4.20;99.90
5743;DHT22;2896;53.500;10.020;2024-01-30T09:15:51;4.30;99.90
5743;DHT22;2896;53.500;10.020;2024-01-30T09:18:18;4.40;99.90
5743;DHT22;2896;53.500;10.020;2024-01-30T09:20:45;4.50;99.90
5743;DHT22;2896;53.500;10.020;2024-01-30T09:23:13;4.50;99.90
5743;DHT22;2896;53.500;10.020;2024-01-30T09:28:06;4.70;99.90
5743;DHT22;2896;53.500;10.020;2024-01-30T09:30:34;4.70;99.90
5743;DHT22;2896;53.500;10.020;2024-01-30T09:33:01;4.80;99.90
5743;DHT22;2896;53.500;10.020;2024-01-30T09:35:27;4.90;99.90
5743;DHT22;2896;53.500;10.020;2024-01-30T09:40:22;5.00;99.90
5743;DHT22;2896;53.500;10.020;2024-01-30T09:42:50;5.10;99.90
5743;DHT22;2896;53.500;10.020;2024-01-30T09:45:18;5.20;99.90
5743;DHT22;2896;53.500;10.020;2024-01-30T09:47:46;5.30;99.90
5743;DHT22;2896;53.500;10.020;2024-01-30T09:50:14;5.30;99.90
5743;DHT22;2896;53.500;10.020;2024-01-30T09:52:41;5.30;99.90
5743;DHT22;2896;53.500;10.020;2024-01-30T09:55:09;5.40;99.90
5743;DHT22;2896;53.500;10.020;2024-01-30T09:57:36;5.50;99.90
5743;DHT22;2896;53.500;10.020;2024-01-30T10:00:04;5.60;99.90
5743;DHT22;2896;53.500;10.020;2024-01-30T10:02:33;5.60;99.90
5743;DHT22;2896;53.500;10.020;2024-01-30T10:05:01;5.80;99.90
5743;DHT22;2896;53.500;10.020;2024-01-30T10:07:28;5.90;99.90
5743;DHT22;2896;53.500;10.020;2024-01-30T10:12:22;6.20;99.90
5743;DHT22;2896;53.500;10.020;2024-01-30T10:14:49;6.20;99.90
5743;DHT22;2896;53.500;10.020;2024-01-30T10:17:16;6.40;99.90
5743;DHT22;2896;53.500;10.020;2024-01-30T10:19:42;6.40;99.90
5743;DHT22;2896;53.500;10.020;2024-01-30T10:22:11;6.50;99.90
5743;DHT22;2896;53.500;10.020;2024-01-30T10:27:05;6.50;99.90
5743;DHT22;2896;53.500;10.020;2024-01-30T10:32:00;6.60;99.90
5743;DHT22;2896;53.500;10.020;2024-01-30T10:34:27;6.70;99.90
5743;DHT22;2896;53.500;10.020;2024-01-30T10:37:00;6.90;99.90
5743;DHT22;2896;53.500;10.020;2024-01-30T10:39:35;6.90;99.90
5743;DHT22;2896;53.500;10.020;2024-01-30T10:42:05;7.00;99.90
5743;DHT22;2896;53.500;10.020;2024-01-30T10:44:37;7.10;99.90
5743;DHT22;2896;53.500;10.020;2024-01-30T10:47:07;7.10;99.90
5743;DHT22;2896;53.500;10.020;2024-01-30T10:49:34;7.10;99.90
5743;DHT22;2896;53.500;10.020;2024-01-30T10:52:02;7.20;99.90
5743;DHT22;2896;53.500;10.020;2024-01-30T10:54:30;7.30;99.90
5743;DHT22;2896;53.500;10.020;2024-01-30T10:57:00;7.40;99.90
5743;DHT22;2896;53.500;10.020;2024-01-30T10:59:28;7.30;99.90
5743;DHT22;2896;53.500;10.020;2024-01-30T11:01:56;7.40;99.90
5743;DHT22;2896;53.500;10.020;2024-01-30T11:04:23;7.50;99.90
5743;DHT22;2896;53.500;10.020;2024-01-30T11:09:18;7.60;99.90
5743;DHT22;2896;53.500;10.020;2024-01-30T11:11:49;7.70;99.90
5743;DHT22;2896;53.500;10.020;2024-01-30T11:14:23;7.80;99.90
5743;DHT22;2896;53.500;10.020;2024-01-30T11:16:49;7.80;99.90
5743;DHT22;2896;53.500;10.020;2024-01-30T11:19:22;8.00;99.90
5743;DHT22;2896;53.500;10.020;2024-01-30T11:21:50;8.00;99.90
5743;DHT22;2896;53.500;10.020;2024-01-30T11:24:19;8.00;99.90
5743;DHT22;2896;53.500;10.020;2024-01-30T11:26:48;8.00;99.90
5743;DHT22;2896;53.500;10.020;2024-01-30T11:29:16;8.10;99.90
5743;DHT22;2896;53.500;10.020;2024-01-30T11:31:51;8.10;99.90
5743;DHT22;2896;53.500;10.020;2024-01-30T11:34:18;8.20;99.90
5743;DHT22;2896;53.500;10.020;2024-01-30T11:36:51;8.30;99.90
5743;DHT22;2896;53.500;10.020;2024-01-30T11:39:20;8.30;99.90
5743;DHT22;2896;53.500;10.020;2024-01-30T11:41:48;8.30;99.90
5743;DHT22;2896;53.500;10.020;2024-01-30T11:44:18;8.40;99.90
5743;DHT22;2896;53.500;10.020;2024-01-30T11:46:45;8.40;99.90
5743;DHT22;2896;53.500;10.020;2024-01-30T11:49:12;8.40;99.90
5743;DHT22;2896;53.500;10.020;2024-01-30T11:51:39;8.40;99.90
5743;DHT22;2896;53.500;10.020;2024-01-30T11:54:07;8.50;99.90
5743;DHT22;2896;53.500;10.020;2024-01-30T11:56:34;8.50;99.90
5743;DHT22;2896;53.500;10.020;2024-01-30T11:59:01;8.50;99.90
5743;DHT22;2896;53.500;10.020;2024-01-30T12:01:29;8.60;99.90
5743;DHT22;2896;53.500;10.020;2024-01-30T12:03:56;8.60;99.90
5743;DHT22;2896;53.500;10.020;2024-01-30T12:06:23;8.70;99.90
5743;DHT22;2896;53.500;10.020;2024-01-30T12:08:57;8.70;99.90
5743;DHT22;2896;53.500;10.020;2024-01-30T12:11:24;8.70;99.90
5743;DHT22;2896;53.500;10.020;2024-01-30T12:13:51;8.80;99.90
5743;DHT22;2896;53.500;10.020;2024-01-30T12:16:19;8.80;99.90
5743;DHT22;2896;53.500;10.020;2024-01-30T12:18:47;8.80;99.90
5743;DHT22;2896;53.500;10.020;2024-01-30T12:21:16;8.80;99.90
5743;DHT22;2896;53.500;10.020;2024-01-30T12:23:43;8.80;99.90
5743;DHT22;2896;53.500;10.020;2024-01-30T12:26:10;9.00;99.90
5743;DHT22;2896;53.500;10.020;2024-01-30T12:28:46;9.00;99.90
5743;DHT22;2896;53.500;10.020;2024-01-30T12:31:13;8.90;99.90
5743;DHT22;2896;53.500;10.020;2024-01-30T12:33:40;9.10;99.90
5743;DHT22;2896;53.500;10.020;2024-01-30T12:36:08;9.10;94.20
5743;DHT22;2896;53.500;10.020;2024-01-30T12:38:34;9.10;98.70
5743;DHT22;2896;53.500;10.020;2024-01-30T12:41:01;9.10;99.90
5743;DHT22;2896;53.500;10.020;2024-01-30T12:43:28;9.20;99.90
5743;DHT22;2896;53.500;10.020;2024-01-30T12:45:55;9.30;99.90
5743;DHT22;2896;53.500;10.020;2024-01-30T12:48:22;9.40;99.90
5743;DHT22;2896;53.500;10.020;2024-01-30T12:50:49;9.50;99.90
5743;DHT22;2896;53.500;10.020;2024-01-30T12:53:17;9.50;99.90
5743;DHT22;2896;53.500;10.020;2024-01-30T12:55:44;9.60;99.50
5743;DHT22;2896;53.500;10.020;2024-01-30T12:58:10;9.60;23.30
5743;DHT22;2896;53.500;10.020;2024-01-30T13:00:37;9.70;2.30
5743;DHT22;2896;53.500;10.020;2024-01-30T13:05:31;9.80;1.00
5743;DHT22;2896;53.500;10.020;2024-01-30T13:10:26;9.80;1.00
5743;DHT22;2896;53.500;10.020;2024-01-30T13:12:52;9.80;1.00
5743;DHT22;2896;53.500;10.020;2024-01-30T13:15:19;9.80;1.00
5743;DHT22;2896;53.500;10.020;2024-01-30T13:17:48;9.80;1.00
5743;DHT22;2896;53.500;10.020;2024-01-30T13:20:15;9.80;1.00
5743;DHT22;2896;53.500;10.020;2024-01-30T13:22:44;9.80;1.00
5743;DHT22;2896;53.500;10.020;2024-01-30T13:25:11;9.80;1.00
5743;DHT22;2896;53.500;10.020;2024-01-30T13:27:39;9.70;1.00
5743;DHT22;2896;53.500;10.020;2024-01-30T13:30:07;9.70;1.00
5743;DHT22;2896;53.500;10.020;2024-01-30T13:32:34;9.60;1.00
5743;DHT22;2896;53.500;10.020;2024-01-30T13:35:01;9.70;21.50
5743;DHT22;2896;53.500;10.020;2024-01-30T13:37:27;9.70;1.00
5743;DHT22;2896;53.500;10.020;2024-01-30T13:39:55;9.70;1.00
5743;DHT22;2896;53.500;10.020;2024-01-30T13:42:22;9.60;1.00
5743;DHT22;2896;53.500;10.020;2024-01-30T13:44:50;9.60;5.70
5743;DHT22;2896;53.500;10.020;2024-01-30T13:47:16;9.60;56.20
5743;DHT22;2896;53.500;10.020;2024-01-30T13:49:44;9.60;71.20
5743;DHT22;2896;53.500;10.020;2024-01-30T13:52:10;9.60;69.70
5743;DHT22;2896;53.500;10.020;2024-01-30T13:54:37;9.60;74.60
5743;DHT22;2896;53.500;10.020;2024-01-30T13:57:04;9.60;94.30
5743;DHT22;2896;53.500;10.020;2024-01-30T14:02:00;9.70;72.10
5743;DHT22;2896;53.500;10.020;2024-01-30T14:04:27;9.70;19.90
5743;DHT22;2896;53.500;10.020;2024-01-30T14:06:53;9.70;40.40
5743;DHT22;2896;53.500;10.020;2024-01-30T14:09:20;9.70;60.90
5743;DHT22;2896;53.500;10.020;2024-01-30T14:11:47;9.70;49.90
5743;DHT22;2896;53.500;10.020;2024-01-30T14:14:13;9.60;94.30
5743;DHT22;2896;53.500;10.020;2024-01-30T14:16:40;9.60;99.90
5743;DHT22;2896;53.500;10.020;2024-01-30T14:19:08;9.60;99.90
5743;DHT22;2896;53.500;10.020;2024-01-30T14:21:34;9.50;99.90
5743;DHT22;2896;53.500;10.020;2024-01-30T14:24:02;9.60;99.90
5743;DHT22;2896;53.500;10.020;2024-01-30T14:26:29;9.70;99.90
5743;DHT22;2896;53.500;10.020;2024-01-30T14:28:56;9.80;99.90
5743;DHT22;2896;53.500;10.020;2024-01-30T14:31:22;9.80;99.90
5743;DHT22;2896;53.500;10.020;2024-01-30T14:33:49;9.80;99.90
5743;DHT22;2896;53.500;10.020;2024-01-30T14:36:18;9.80;98.60
5743;DHT22;2896;53.500;10.020;2024-01-30T14:38:45;9.80;99.90
5743;DHT22;2896;53.500;10.020;2024-01-30T14:41:12;9.70;99.90
5743;DHT22;2896;53.500;10.020;2024-01-30T14:46:06;9.70;99.90
5743;DHT22;2896;53.500;10.020;2024-01-30T14:48:32;9.70;99.90
5743;DHT22;2896;53.500;10.020;2024-01-30T14:50:59;9.70;99.90
5743;DHT22;2896;53.500;10.020;2024-01-30T14:53:27;9.80;99.90
5743;DHT22;2896;53.500;10.020;2024-01-30T14:55:54;9.80;99.90
5743;DHT22;2896;53.500;10.020;2024-01-30T14:58:20;9.70;99.90
5743;DHT22;2896;53.500;10.020;2024-01-30T15:00:47;9.80;99.90
5743;DHT22;2896;53.500;10.020;2024-01-30T15:03:13;9.90;99.90
5743;DHT22;2896;53.500;10.020;2024-01-30T15:05:40;9.80;99.90
5743;DHT22;2896;53.500;10.020;2024-01-30T15:08:07;9.90;99.90
5743;DHT22;2896;53.500;10.020;2024-01-30T15:10:35;9.90;99.90
5743;DHT22;2896;53.500;10.020;2024-01-30T15:13:01;9.90;99.90
5743;DHT22;2896;53.500;10.020;2024-01-30T15:15:28;10.00;99.90
5743;DHT22;2896;53.500;10.020;2024-01-30T15:17:56;10.00;99.90
5743;DHT22;2896;53.500;10.020;2024-01-30T15:20:23;10.00;99.90
5743;DHT22;2896;53.500;10.020;2024-01-30T15:22:49;9.90;99.90
5743;DHT22;2896;53.500;10.020;2024-01-30T15:27:44;10.00;99.90
5743;DHT22;2896;53.500;10.020;2024-01-30T15:30:12;10.10;99.90
5743;DHT22;2896;53.500;10.020;2024-01-30T15:32:39;10.10;99.90
5743;DHT22;2896;53.500;10.020;2024-01-30T15:35:06;10.20;99.90
5743;DHT22;2896;53.500;10.020;2024-01-30T15:37:33;10.20;99.90
5743;DHT22;2896;53.500;10.020;2024-01-30T15:42:27;10.20;99.90
5743;DHT22;2896;53.500;10.020;2024-01-30T15:44:55;10.20;99.90
5743;DHT22;2896;53.500;10.020;2024-01-30T15:47:23;10.20;99.90
5743;DHT22;2896;53.500;10.020;2024-01-30T15:49:50;10.20;99.90
5743;DHT22;2896;53.500;10.020;2024-01-30T15:52:17;10.20;99.90
5743;DHT22;2896;53.500;10.020;2024-01-30T15:54:44;10.20;99.90
5743;DHT22;2896;53.500;10.020;2024-01-30T15:59:37;10.20;99.90
5743;DHT22;2896;53.500;10.020;2024-01-30T16:02:05;10.20;99.90
5743;DHT22;2896;53.500;10.020;2024-01-30T16:04:32;10.20;99.90
5743;DHT22;2896;53.500;10.020;2024-01-30T16:09:25;10.20;99.90
5743;DHT22;2896;53.500;10.020;2024-01-30T16:11:52;10.20;99.90
5743;DHT22;2896;53.500;10.020;2024-01-30T16:14:18;10.20;99.90
5743;DHT22;2896;53.500;10.020;2024-01-30T16:19:14;10.10;99.90
5743;DHT22;2896;53.500;10.020;2024-01-30T16:21:40;10.00;99.90
5743;DHT22;2896;53.500;10.020;2024-01-30T16:24:09;10.00;99.90
5743;DHT22;2896;53.500;10.020;2024-01-30T16:26:36;10.00;99.90
5743;DHT22;2896;53.500;10.020;2024-01-30T16:29:03;9.90;99.90
5743;DHT22;2896;53.500;10.020;2024-01-30T16:33:56;9.90;99.90
5743;DHT22;2896;53.500;10.020;2024-01-30T16:36:26;9.90;99.90
5743;DHT22;2896;53.500;10.020;2024-01-30T16:38:53;9.90;99.90
5743;DHT22;2896;53.500;10.020;2024-01-30T16:43:46;9.90;99.90
5743;DHT22;2896;53.500;10.020;2024-01-30T16:46:13;9.90;99.90
5743;DHT22;2896;53.500;10.020;2024-01-30T16:48:40;10.00;99.90
5743;DHT22;2896;53.500;10.020;2024-01-30T16:51:06;10.00;99.90
5743;DHT22;2896;53.500;10.020;2024-01-30T16:53:34;10.00;99.90
5743;DHT22;2896;53.500;10.020;2024-01-30T16:56:01;10.00;99.90
5743;DHT22;2896;53.500;10.020;2024-01-30T16:58:28;10.10;99.90
5743;DHT22;2896;53.500;10.020;2024-01-30T17:03:23;10.10;99.90
5743;DHT22;2896;53.500;10.020;2024-01-30T17:05:49;10.10;99.90
5743;DHT22;2896;53.500;10.020;2024-01-30T17:10:48;9.90;99.90
5743;DHT22;2896;53.500;10.020;2024-01-30T17:13:14;9.90;99.90
5743;DHT22;2896;53.500;10.020;2024-01-30T17:15:42;9.90;99.90
5743;DHT22;2896;53.500;10.020;2024-01-30T17:18:08;9.90;99.90
5743;DHT22;2896;53.500;10.020;2024-01-30T17:20:35;10.00;99.90
5743;DHT22;2896;53.500;10.020;2024-01-30T17:23:02;10.10;99.90
5743;DHT22;2896;53.500;10.020;2024-01-30T17:25:29;10.10;99.90
5743;DHT22;2896;53.500;10.020;2024-01-30T17:27:58;10.10;99.90
5743;DHT22;2896;53.500;10.020;2024-01-30T17:32:51;10.10;99.90
5743;DHT22;2896;53.500;10.020;2024-01-30T17:35:18;10.20;99.90
5743;DHT22;2896;53.500;10.020;2024-01-30T17:37:45;10.20;96.90
5743;DHT22;2896;53.500;10.020;2024-01-30T17:40:12;10.10;99.20
5743;DHT22;2896;53.500;10.020;2024-01-30T17:42:38;10.20;99.90
5743;DHT22;2896;53.500;10.020;2024-01-30T17:45:08;10.20;47.70
5743;DHT22;2896;53.500;10.020;2024-01-30T17:47:34;10.20;1.00
5743;DHT22;2896;53.500;10.020;2024-01-30T17:50:01;10.20;1.00
5743;DHT22;2896;53.500;10.020;2024-01-30T17:52:28;10.20;1.00
5743;DHT22;2896;53.500;10.020;2024-01-30T17:54:54;10.20;1.00
5743;DHT22;2896;53.500;10.020;2024-01-30T17:57:21;10.20;1.00
5743;DHT22;2896;53.500;10.020;2024-01-30T17:59:48;10.20;1.00
5743;DHT22;2896;53.500;10.020;2024-01-30T18:02:16;10.20;1.00
5743;DHT22;2896;53.500;10.020;2024-01-30T18:04:42;10.30;1.00
5743;DHT22;2896;53.500;10.020;2024-01-30T18:09:37;10.30;1.00
5743;DHT22;2896;53.500;10.020;2024-01-30T18:12:04;10.20;1.00
5743;DHT22;2896;53.500;10.020;2024-01-30T18:14:31;10.20;1.00
5743;DHT22;2896;53.500;10.020;2024-01-30T18:16:58;10.20;1.00
5743;DHT22;2896;53.500;10.020;2024-01-30T18:19:26;10.20;1.00
5743;DHT22;2896;53.500;10.020;2024-01-30T18:21:53;10.30;1.00
5743;DHT22;2896;53.500;10.020;2024-01-30T18:24:19;10.30;99.90
5743;DHT22;2896;53.500;10.020;2024-01-30T18:29:14;10.20;99.90
5743;DHT22;2896;53.500;10.020;2024-01-30T18:31:40;10.20;99.90
5743;DHT22;2896;53.500;10.020;2024-01-30T18:34:08;10.10;99.90
5743;DHT22;2896;53.500;10.020;2024-01-30T18:36:36;10.10;99.90
5743;DHT22;2896;53.500;10.020;2024-01-30T18:39:06;10.10;99.90
5743;DHT22;2896;53.500;10.020;2024-01-30T18:41:33;10.10;4.60
5743;DHT22;2896;53.500;10.020;2024-01-30T18:44:00;10.20;1.00
5743;DHT22;2896;53.500;10.020;2024-01-30T18:46:27;10.20;1.00
5743;DHT22;2896;53.500;10.020;2024-01-30T18:48:54;10.10;1.00
5743;DHT22;2896;53.500;10.020;2024-01-30T18:51:20;10.20;99.90
5743;DHT22;2896;53.500;10.020;2024-01-30T18:53:48;10.20;1.00
5743;DHT22;2896;53.500;10.020;2024-01-30T18:56:15;10.20;1.00
5743;DHT22;2896;53.500;10.020;2024-01-30T18:58:43;10.20;19.40
5743;DHT22;2896;53.500;10.020;2024-01-30T19:01:09;10.10;1.00
5743;DHT22;2896;53.500;10.020;2024-01-30T19:03:37;10.10;1.00
5743;DHT22;2896;53.500;10.020;2024-01-30T19:06:04;10.10;99.90
5743;DHT22;2896;53.500;10.020;2024-01-30T19:08:31;10.10;1.00
5743;DHT22;2896;53.500;10.020;2024-01-30T19:10:59;10.00;1.00
5743;DHT22;2896;53.500;10.020;2024-01-30T19:13:26;10.10;99.90
5743;DHT22;2896;53.500;10.020;2024-01-30T19:15:53;10.10;1.00
5743;DHT22;2896;53.500;10.020;2024-01-30T19:18:20;10.10;1.00
5743;DHT22;2896;53.500;10.020;2024-01-30T19:20:47;10.00;99.90
5743;DHT22;2896;53.500;10.020;2024-01-30T19:23:14;9.90;99.90
5743;DHT22;2896;53.500;10.020;2024-01-30T19:25:42;10.00;99.90
5743;DHT22;2896;53.500;10.020;2024-01-30T19:28:10;9.80;1.00
5743;DHT22;2896;53.500;10.020;2024-01-30T19:30:37;9.80;1.00
5743;DHT22;2896;53.500;10.020;2024-01-30T19:33:05;9.80;99.90
5743;DHT22;2896;53.500;10.020;2024-01-30T19:35:32;9.80;1.00
5743;DHT22;2896;53.500;10.020;2024-01-30T19:37:59;9.90;99.90
5743;DHT22;2896;53.500;10.020;2024-01-30T19:40:26;9.80;98.40
5743;DHT22;2896;53.500;10.020;2024-01-30T19:42:53;9.70;99.90
5743;DHT22;2896;53.500;10.020;2024-01-30T19:45:21;9.80;1.00
5743;DHT22;2896;53.500;10.020;2024-01-30T19:47:48;9.80;1.00
5743;DHT22;2896;53.500;10.020;2024-01-30T19:50:17;9.70;1.00
5743;DHT22;2896;53.500;10.020;2024-01-30T19:52:44;9.70;99.90
5743;DHT22;2896;53.500;10.020;2024-01-30T19:55:12;9.70;1.00
5743;DHT22;2896;53.500;10.020;2024-01-30T19:57:39;9.60;1.00
5743;DHT22;2896;53.500;10.020;2024-01-30T20:00:06;9.60;99.90
5743;DHT22;2896;53.500;10.020;2024-01-30T20:02:36;9.60;1.00
5743;DHT22;2896;53.500;10.020;2024-01-30T20:05:03;9.60;96.60
5743;DHT22;2896;53.500;10.020;2024-01-30T20:07:30;9.60;99.90
5743;DHT22;2896;53.500;10.020;2024-01-30T20:09:57;9.60;1.00
5743;DHT22;2896;53.500;10.020;2024-01-30T20:12:23;9.50;1.00
5743;DHT22;2896;53.500;10.020;2024-01-30T20:14:50;9.50;98.20
5743;DHT22;2896;53.500;10.020;2024-01-30T20:17:16;9.50;99.90
5743;DHT22;2896;53.500;10.020;2024-01-30T20:19:44;9.50;1.00
5743;DHT22;2896;53.500;10.020;2024-01-30T20:22:11;9.50;1.00
5743;DHT22;2896;53.500;10.020;2024-01-30T20:24:38;9.50;1.00
5743;DHT22;2896;53.500;10.020;2024-01-30T20:27:06;9.40;1.00
5743;DHT22;2896;53.500;10.020;2024-01-30T20:29:32;9.40;1.00
5743;DHT22;2896;53.500;10.020;2024-01-30T20:31:59;9.30;1.00
5743;DHT22;2896;53.500;10.020;2024-01-30T20:34:26;9.30;1.00
5743;DHT22;2896;53.500;10.020;2024-01-30T20:36:54;9.30;1.00
5743;DHT22;2896;53.500;10.020;2024-01-30T20:39:20;9.30;16.60
5743;DHT22;2896;53.500;10.020;2024-01-30T20:41:47;9.30;6.70
5743;DHT22;2896;53.500;10.020;2024-01-30T20:44:14;9.30;18.80
5743;DHT22;2896;53.500;10.020;2024-01-30T20:46:43;9.30;89.50
5743;DHT22;2896;53.500;10.020;2024-01-30T20:49:10;9.30;99.90
5743;DHT22;2896;53.500;10.020;2024-01-30T20:51:36;9.30;99.90
5743;DHT22;2896;53.500;10.020;2024-01-30T20:54:04;9.20;99.90
5743;DHT22;2896;53.500;10.020;2024-01-30T20:56:31;9.20;99.90
5743;DHT22;2896;53.500;10.020;2024-01-30T20:58:58;9.10;99.90
5743;DHT22;2896;53.500;10.020;2024-01-30T21:01:24;9.10;99.90
5743;DHT22;2896;53.500;10.020;2024-01-30T21:03:51;9.10;99.90
5743;DHT22;2896;53.500;10.020;2024-01-30T21:06:19;9.00;99.90
5743;DHT22;2896;53.500;10.020;2024-01-30T21:08:45;9.00;99.90
5743;DHT22;2896;53.500;10.020;2024-01-30T21:11:13;8.90;99.90
5743;DHT22;2896;53.500;10.020;2024-01-30T21:13:40;8.90;99.90
5743;DHT22;2896;53.500;10.020;2024-01-30T21:16:07;8.90;99.90
5743;DHT22;2896;53.500;10.020;2024-01-30T21:18:33;8.90;99.90
5743;DHT22;2896;53.500;10.020;2024-01-30T21:21:01;8.80;99.90